createdAt,value
2023-03-06T14:32:11.413Z,18.67
2023-03-06T14:37:25.294Z,18.60
2023-03-06T14:42:29.500Z,19.20
2023-03-06T14:47:34.286Z,17.33
2023-03-06T14:52:36.553Z,15.88
2023-03-06T14:57:38.972Z,16.17
2023-03-06T15:02:41.413Z,15.73
2023-03-06T15:07:44.280Z,16.45
2023-03-06T15:12:46.493Z,15.88
2023-03-06T15:17:49.027Z,15.27
2023-03-06T15:22:51.407Z,15.45
2023-03-06T15:27:58.161Z,16.15
2023-03-06T15:33:23.725Z,16.35
2023-03-06T21:13:25.621Z,35.80
2023-03-06T21:18:28.361Z,32.80
2023-03-06T21:23:30.597Z,44.38
2023-03-06T21:28:33.355Z,64.25
2023-03-06T21:33:35.999Z,84.57
2023-03-06T21:38:38.545Z,51.00
2023-03-06T21:43:41.474Z,34.72
2023-03-06T21:48:43.707Z,23.58
2023-03-06T21:53:47.822Z,20.38
2023-03-06T21:58:50.172Z,20.65
2023-03-06T22:03:52.788Z,17.05
2023-03-06T22:08:56.029Z,17.52
2023-03-06T22:13:58.244Z,18.77
2023-03-06T22:19:00.719Z,26.77
2023-03-06T22:24:03.216Z,26.38
2023-03-06T22:29:05.577Z,26.10
2023-03-06T22:34:07.802Z,25.65
2023-03-06T22:39:12.537Z,32.17
2023-03-06T22:44:17.348Z,35.75
2023-03-06T22:49:19.628Z,32.92
2023-03-06T22:54:21.922Z,26.48
2023-03-06T22:59:24.125Z,25.70
2023-03-06T23:04:26.405Z,26.10
2023-03-06T23:09:29.292Z,23.85
2023-03-06T23:14:51.423Z,22.05
2023-03-06T23:20:14.159Z,25.40
2023-03-06T23:25:36.608Z,25.05
2023-03-06T23:30:39.861Z,24.38
2023-03-06T23:35:44.236Z,22.83
2023-03-06T23:40:46.520Z,25.00
2023-03-06T23:45:53.825Z,21.80
2023-03-06T23:50:56.291Z,21.58
2023-03-06T23:55:58.714Z,20.67
